Time;durP1;ratioP1;P1;durP2;ratioP2;P2;SDS_P1;SDS_P2;PMS_P1;PMS_P2;Temp;Humidity;BMP_temperature;BMP_pressure;BME280_temperature;BME280_humidity;BME280_pressure;Samples;Min_cycle;Max_cycle;Signal;HPM_P1;HPM_P2
2022/01/20 00:00:20;;;;;;;0.00;0.00;;;;;;;;;;5073338;28;20571;-71
2022/01/20 00:02:55;;;;;;;0.00;0.00;;;;;;;;;;5073412;28;20548;-75
2022/01/20 00:08:20;;;;;;;0.00;0.00;;;;;;;;;;5069825;28;20225;-74
2022/01/20 00:27:37;;;;;;;0.00;0.00;;;;;;;;;;5073411;28;20275;-75
2022/01/20 00:30:30;;;;;;;0.00;0.00;;;;;;;;;;5073190;28;20207;-74
2022/01/20 00:33:13;;;;;;;0.00;0.00;;;;;;;;;;5072737;28;20206;-73
2022/01/20 00:38:24;;;;;;;0.00;0.00;;;;;;;;;;5063747;28;20219;-73
2022/01/20 00:40:53;;;;;;;0.00;0.00;;;;;;;;;;5072932;28;20249;-72
2022/01/20 00:43:22;;;;;;;0.00;0.00;;;;;;;;;;5072314;28;20603;-74
2022/01/20 00:45:52;;;;;;;0.00;0.00;;;;;;;;;;5071964;28;20645;-74
2022/01/20 00:48:21;;;;;;;0.00;0.00;;;;;;;;;;5072278;28;20225;-72
2022/01/20 00:50:50;;;;;;;0.00;0.00;;;;;;;;;;5064247;28;20198;-74
2022/01/20 00:53:21;;;;;;;0.00;0.00;;;;;;;;;;5067680;28;20224;-74
2022/01/20 00:55:49;;;;;;;0.00;0.00;;;;;;;;;;5072677;28;20205;-74
2022/01/20 00:58:18;;;;;;;0.00;0.00;;;;;;;;;;5072750;28;20225;-75
2022/01/20 01:00:46;;;;;;;0.00;0.00;;;;;;;;;;5072526;28;20203;-74
2022/01/20 01:03:16;;;;;;;0.00;0.00;;;;;;;;;;5060572;28;20674;-73
2022/01/20 01:05:58;;;;;;;0.00;0.00;;;;;;;;;;5065483;28;20669;-74
2022/01/20 01:08:27;;;;;;;0.00;0.00;;;;;;;;;;5072263;28;20696;-74
2022/01/20 01:10:55;;;;;;;0.00;0.00;;;;;;;;;;5066615;28;20259;-74
2022/01/20 01:13:26;;;;;;;0.00;0.00;;;;;;;;;;5072290;28;20236;-73
2022/01/20 01:15:54;;;;;;;0.00;0.00;;;;;;;;;;5055741;28;20202;-73
2022/01/20 01:21:26;;;;;;;0.00;0.00;;;;;;;;;;5069444;28;20199;-72
2022/01/20 01:23:55;;;;;;;0.00;0.00;;;;;;;;;;5064929;28;20197;-75
2022/01/20 01:26:27;;;;;;;0.00;0.00;;;;;;;;;;5069049;28;20212;-73
2022/01/20 01:28:57;;;;;;;0.00;0.00;;;;;;;;;;5066053;28;20222;-72
2022/01/20 01:31:34;;;;;;;0.00;0.00;;;;;;;;;;5057849;28;20193;-74
2022/01/20 01:34:07;;;;;;;0.00;0.00;;;;;;;;;;5072220;28;20588;-75
2022/01/20 01:36:49;;;;;;;0.00;0.00;;;;;;;;;;5073067;28;20257;-72
2022/01/20 01:39:18;;;;;;;0.00;0.00;;;;;;;;;;5069867;28;20203;-75
2022/01/20 01:41:47;;;;;;;0.00;0.00;;;;;;;;;;5066079;28;20883;-74
2022/01/20 01:44:22;;;;;;;0.00;0.00;;;;;;;;;;5071245;28;20211;-72
2022/01/20 01:46:50;;;;;;;0.00;0.00;;;;;;;;;;5072974;28;20253;-73
2022/01/20 01:49:21;;;;;;;0.00;0.00;;;;;;;;;;5071784;28;20595;-73
2022/01/20 01:51:49;;;;;;;0.00;0.00;;;;;;;;;;5071885;28;20270;-72
2022/01/20 01:54:18;;;;;;;0.00;0.00;;;;;;;;;;5072016;28;20229;-75
2022/01/20 01:56:48;;;;;;;0.00;0.00;;;;;;;;;;5071942;28;20197;-73
2022/01/20 01:59:17;;;;;;;0.00;0.00;;;;;;;;;;5071300;28;20205;-74
2022/01/20 02:01:45;;;;;;;0.00;0.00;;;;;;;;;;5068258;28;20278;-74
2022/01/20 02:04:17;;;;;;;0.00;0.00;;;;;;;;;;5074297;28;20559;-73
2022/01/20 02:17:48;;;;;;;0.00;0.00;;;;;;;;;;5071182;28;20204;-73
2022/01/20 02:18:23;;;;;;;0.00;0.00;;;;;;;;;;5074981;28;20255;-76
2022/01/20 02:20:53;;;;;;;0.00;0.00;;;;;;;;;;5077800;28;20198;-73
2022/01/20 02:23:24;;;;;;;0.00;0.00;;;;;;;;;;5083826;28;20615;-73
2022/01/20 02:25:52;;;;;;;0.00;0.00;;;;;;;;;;5078529;28;20277;-76
2022/01/20 02:28:20;;;;;;;0.00;0.00;;;;;;;;;;5074901;28;20247;-74
2022/01/20 02:30:49;;;;;;;0.00;0.00;;;;;;;;;;5075456;28;20544;-74
2022/01/20 02:33:18;;;;;;;0.00;0.00;;;;;;;;;;5073799;28;20296;-74
2022/01/20 02:35:49;;;;;;;0.00;0.00;;;;;;;;;;5074903;28;20567;-74
2022/01/20 02:38:25;;;;;;;0.00;0.00;;;;;;;;;;5073074;28;20273;-72
2022/01/20 02:46:26;;;;;;;0.00;0.00;;;;;;;;;;5073430;28;20209;-73
2022/01/20 02:48:55;;;;;;;0.00;0.00;;;;;;;;;;5071343;28;20247;-73
2022/01/20 02:51:23;;;;;;;0.00;0.00;;;;;;;;;;5071705;28;20214;-73
2022/01/20 02:53:53;;;;;;;0.00;0.00;;;;;;;;;;5072905;28;20284;-74
2022/01/20 02:56:22;;;;;;;0.00;0.00;;;;;;;;;;5075417;28;20260;-73
2022/01/20 02:58:50;;;;;;;0.00;0.00;;;;;;;;;;5067061;28;20628;-72
2022/01/20 03:01:19;;;;;;;0.00;0.00;;;;;;;;;;5064583;28;20205;-72
2022/01/20 03:03:47;;;;;;;0.00;0.00;;;;;;;;;;5065376;28;20205;-73
2022/01/20 03:06:15;;;;;;;0.00;0.00;;;;;;;;;;5071797;28;20251;-73
2022/01/20 03:08:44;;;;;;;0.00;0.00;;;;;;;;;;5073122;28;20233;-73
2022/01/20 03:11:15;;;;;;;0.00;0.00;;;;;;;;;;5073238;28;20208;-72
2022/01/20 03:13:44;;;;;;;0.00;0.00;;;;;;;;;;5073936;28;20213;-74
2022/01/20 03:16:12;;;;;;;0.00;0.00;;;;;;;;;;5074127;28;20254;-73
2022/01/20 03:18:41;;;;;;;0.00;0.00;;;;;;;;;;5073306;28;20572;-74
2022/01/20 03:21:09;;;;;;;0.00;0.00;;;;;;;;;;5074683;28;20207;-72
2022/01/20 03:23:37;;;;;;;0.00;0.00;;;;;;;;;;5074556;28;20265;-72
2022/01/20 03:26:06;;;;;;;0.00;0.00;;;;;;;;;;5073425;28;20207;-72
2022/01/20 03:28:35;;;;;;;0.00;0.00;;;;;;;;;;5074011;28;20292;-72
2022/01/20 03:31:04;;;;;;;0.00;0.00;;;;;;;;;;5073770;28;20255;-72
2022/01/20 03:33:32;;;;;;;0.00;0.00;;;;;;;;;;5073960;28;20192;-73
2022/01/20 03:36:01;;;;;;;0.00;0.00;;;;;;;;;;5072806;28;20230;-74
2022/01/20 03:38:29;;;;;;;0.00;0.00;;;;;;;;;;5073974;28;20227;-73
2022/01/20 03:40:57;;;;;;;0.00;0.00;;;;;;;;;;5073486;28;20200;-72
2022/01/20 03:43:26;;;;;;;0.00;0.00;;;;;;;;;;5073862;28;20283;-72
2022/01/20 03:45:58;;;;;;;0.00;0.00;;;;;;;;;;5073043;28;20221;-72
2022/01/20 03:48:28;;;;;;;0.00;0.00;;;;;;;;;;5061021;28;20219;-72
2022/01/20 03:51:00;;;;;;;0.00;0.00;;;;;;;;;;5072075;28;20270;-74
2022/01/20 03:53:29;;;;;;;0.00;0.00;;;;;;;;;;5073726;28;20659;-74
2022/01/20 03:55:57;;;;;;;0.00;0.00;;;;;;;;;;5072542;28;20264;-73
2022/01/20 03:58:26;;;;;;;0.00;0.00;;;;;;;;;;5073455;28;20295;-74
2022/01/20 04:00:56;;;;;;;0.00;0.00;;;;;;;;;;5072539;28;20206;-73
2022/01/20 04:03:26;;;;;;;0.00;0.00;;;;;;;;;;5060104;28;20684;-73
2022/01/20 04:05:57;;;;;;;0.00;0.00;;;;;;;;;;5073459;28;20277;-72
2022/01/20 04:08:27;;;;;;;0.00;0.00;;;;;;;;;;5073398;28;20224;-72
2022/01/20 04:10:55;;;;;;;0.00;0.00;;;;;;;;;;5073144;28;20219;-73
2022/01/20 04:13:28;;;;;;;0.00;0.00;;;;;;;;;;5072746;28;20203;-74
2022/01/20 04:15:59;;;;;;;0.00;0.00;;;;;;;;;;5072637;28;20696;-73
2022/01/20 04:18:28;;;;;;;0.00;0.00;;;;;;;;;;5073255;28;20228;-73
2022/01/20 04:20:57;;;;;;;0.00;0.00;;;;;;;;;;5061860;28;20258;-73
2022/01/20 04:23:26;;;;;;;0.00;0.00;;;;;;;;;;5072281;28;20226;-74
2022/01/20 04:25:55;;;;;;;0.00;0.00;;;;;;;;;;5071593;28;20268;-73
2022/01/20 04:28:23;;;;;;;0.00;0.00;;;;;;;;;;5073090;28;20223;-71
2022/01/20 04:30:51;;;;;;;0.00;0.00;;;;;;;;;;5072858;28;20606;-74
2022/01/20 04:33:21;;;;;;;0.00;0.00;;;;;;;;;;5066194;28;20664;-74
2022/01/20 04:35:49;;;;;;;0.00;0.00;;;;;;;;;;5072640;28;20265;-74
2022/01/20 04:38:18;;;;;;;0.00;0.00;;;;;;;;;;5073097;28;20222;-73
2022/01/20 04:40:46;;;;;;;0.00;0.00;;;;;;;;;;5069031;28;20729;-72
2022/01/20 04:43:15;;;;;;;0.00;0.00;;;;;;;;;;5072520;28;20203;-71
2022/01/20 04:45:49;;;;;;;0.00;0.00;;;;;;;;;;5071920;28;20649;-70
2022/01/20 04:48:31;;;;;;;0.00;0.00;;;;;;;;;;5072713;28;20250;-71
2022/01/20 04:59:20;;;;;;;0.00;0.00;;;;;;;;;;5064661;28;20204;-74
2022/01/20 05:01:48;;;;;;;0.00;0.00;;;;;;;;;;5071601;28;20233;-73
2022/01/20 05:04:17;;;;;;;0.00;0.00;;;;;;;;;;5070507;28;20233;-73
2022/01/20 05:06:47;;;;;;;0.00;0.00;;;;;;;;;;5072016;28;20276;-72
2022/01/20 05:09:19;;;;;;;0.00;0.00;;;;;;;;;;5066648;28;20209;-74
2022/01/20 05:11:52;;;;;;;0.00;0.00;;;;;;;;;;5055696;28;20195;-74
2022/01/20 05:14:23;;;;;;;0.00;0.00;;;;;;;;;;5071931;28;20202;-72
2022/01/20 05:16:53;;;;;;;0.00;0.00;;;;;;;;;;5072337;28;20764;-73
2022/01/20 05:19:22;;;;;;;0.00;0.00;;;;;;;;;;5071793;28;20222;-72
2022/01/20 05:21:51;;;;;;;0.00;0.00;;;;;;;;;;5072280;28;20203;-73
2022/01/20 05:24:22;;;;;;;0.00;0.00;;;;;;;;;;5072664;28;20260;-72
2022/01/20 05:26:51;;;;;;;0.00;0.00;;;;;;;;;;5072020;28;20205;-73
2022/01/20 05:29:19;;;;;;;0.00;0.00;;;;;;;;;;5071642;28;20264;-72
2022/01/20 05:31:48;;;;;;;0.00;0.00;;;;;;;;;;5071812;28;20212;-72
2022/01/20 05:34:17;;;;;;;0.00;0.00;;;;;;;;;;5072302;28;20542;-73
2022/01/20 05:36:48;;;;;;;0.00;0.00;;;;;;;;;;5078838;28;20227;-73
2022/01/20 05:39:18;;;;;;;0.00;0.00;;;;;;;;;;5076350;28;20581;-74
2022/01/20 05:41:46;;;;;;;0.00;0.00;;;;;;;;;;5070273;28;20605;-73
2022/01/20 05:44:15;;;;;;;0.00;0.00;;;;;;;;;;5075920;28;20199;-72
2022/01/20 05:46:45;;;;;;;0.00;0.00;;;;;;;;;;5076003;28;20206;-72
2022/01/20 05:49:20;;;;;;;0.00;0.00;;;;;;;;;;5077311;28;20293;-71
2022/01/20 05:51:52;;;;;;;0.00;0.00;;;;;;;;;;5074809;28;20225;-73
2022/01/20 05:54:22;;;;;;;0.00;0.00;;;;;;;;;;5078693;28;20277;-71
2022/01/20 05:56:50;;;;;;;0.00;0.00;;;;;;;;;;5075318;28;20241;-73
2022/01/20 05:59:19;;;;;;;0.00;0.00;;;;;;;;;;5075808;28;20277;-72
2022/01/20 06:01:53;;;;;;;0.00;0.00;;;;;;;;;;5074099;27;20214;-73
2022/01/20 06:04:22;;;;;;;0.00;0.00;;;;;;;;;;5075386;28;20209;-73
2022/01/20 06:06:51;;;;;;;0.00;0.00;;;;;;;;;;5074478;28;20260;-73
2022/01/20 06:09:19;;;;;;;0.00;0.00;;;;;;;;;;5075274;28;20202;-71
2022/01/20 06:11:49;;;;;;;0.00;0.00;;;;;;;;;;5074950;27;20237;-72
2022/01/20 06:14:18;;;;;;;0.00;0.00;;;;;;;;;;5083067;28;20301;-72
2022/01/20 06:16:46;;;;;;;0.00;0.00;;;;;;;;;;5074664;28;20226;-72
2022/01/20 06:19:15;;;;;;;0.00;0.00;;;;;;;;;;5070035;28;20202;-72
2022/01/20 06:21:45;;;;;;;0.00;0.00;;;;;;;;;;5074133;28;20237;-72
2022/01/20 06:24:14;;;;;;;0.00;0.00;;;;;;;;;;5074090;28;20198;-73
2022/01/20 06:26:43;;;;;;;0.00;0.00;;;;;;;;;;5081772;28;20240;-72
2022/01/20 06:29:13;;;;;;;0.00;0.00;;;;;;;;;;5075168;28;20202;-73
2022/01/20 06:31:41;;;;;;;0.00;0.00;;;;;;;;;;5074702;28;20226;-72
2022/01/20 06:34:10;;;;;;;0.00;0.00;;;;;;;;;;5077247;28;20603;-73
2022/01/20 06:36:38;;;;;;;0.00;0.00;;;;;;;;;;5077795;28;20214;-72
2022/01/20 06:39:07;;;;;;;0.00;0.00;;;;;;;;;;5059546;28;20203;-71
2022/01/20 06:41:37;;;;;;;0.00;0.00;;;;;;;;;;5077079;28;20195;-73
2022/01/20 06:44:06;;;;;;;0.00;0.00;;;;;;;;;;5055605;28;20210;-74
2022/01/20 06:46:36;;;;;;;0.00;0.00;;;;;;;;;;5073938;28;20206;-73
2022/01/20 06:49:05;;;;;;;0.00;0.00;;;;;;;;;;5074531;28;20214;-72
2022/01/20 06:51:34;;;;;;;0.00;0.00;;;;;;;;;;5075412;28;20217;-71
2022/01/20 06:54:02;;;;;;;0.00;0.00;;;;;;;;;;5077662;28;20606;-71
2022/01/20 06:56:31;;;;;;;0.00;0.00;;;;;;;;;;5083804;28;20250;-72
2022/01/20 06:59:09;;;;;;;0.00;0.00;;;;;;;;;;5087403;28;20599;-73
2022/01/20 07:01:39;;;;;;;0.00;0.00;;;;;;;;;;5073791;28;20616;-73
2022/01/20 07:04:08;;;;;;;0.00;0.00;;;;;;;;;;5078407;28;20244;-72
2022/01/20 07:06:37;;;;;;;0.00;0.00;;;;;;;;;;5074123;28;20230;-73
2022/01/20 07:09:07;;;;;;;0.00;0.00;;;;;;;;;;5074788;28;20223;-72
2022/01/20 07:11:36;;;;;;;0.00;0.00;;;;;;;;;;5075838;28;20190;-72
2022/01/20 07:14:04;;;;;;;0.00;0.00;;;;;;;;;;5074585;28;20198;-71
2022/01/20 07:16:33;;;;;;;0.00;0.00;;;;;;;;;;5076812;28;20215;-72
2022/01/20 07:19:03;;;;;;;0.00;0.00;;;;;;;;;;5074802;28;20690;-69
2022/01/20 07:21:31;;;;;;;0.00;0.00;;;;;;;;;;5079218;28;20256;-73
2022/01/20 07:23:59;;;;;;;0.00;0.00;;;;;;;;;;5074512;28;20190;-72
2022/01/20 07:26:28;;;;;;;0.00;0.00;;;;;;;;;;5074403;28;20221;-71
2022/01/20 07:28:56;;;;;;;0.00;0.00;;;;;;;;;;5082306;28;20692;-72
2022/01/20 07:31:25;;;;;;;0.00;0.00;;;;;;;;;;5073858;28;20248;-71
2022/01/20 07:33:53;;;;;;;0.00;0.00;;;;;;;;;;5086456;28;20233;-72
2022/01/20 07:36:23;;;;;;;0.00;0.00;;;;;;;;;;5077796;28;20217;-70
2022/01/20 07:38:51;;;;;;;0.00;0.00;;;;;;;;;;5074151;28;20279;-71
2022/01/20 07:41:20;;;;;;;0.00;0.00;;;;;;;;;;5073981;28;20202;-73
2022/01/20 07:43:49;;;;;;;0.00;0.00;;;;;;;;;;5073777;28;20206;-71
2022/01/20 07:46:17;;;;;;;0.00;0.00;;;;;;;;;;5073883;28;20571;-69
2022/01/20 07:48:46;;;;;;;0.00;0.00;;;;;;;;;;5074609;28;20217;-70
2022/01/20 07:51:14;;;;;;;0.00;0.00;;;;;;;;;;5086730;28;20203;-71
2022/01/20 07:53:44;;;;;;;0.00;0.00;;;;;;;;;;5079826;28;20609;-72
2022/01/20 07:56:13;;;;;;;0.00;0.00;;;;;;;;;;5083185;28;20203;-70
2022/01/20 07:58:41;;;;;;;0.00;0.00;;;;;;;;;;5083957;28;20226;-73
2022/01/20 08:01:09;;;;;;;0.00;0.00;;;;;;;;;;5066689;28;20227;-73
2022/01/20 08:03:38;;;;;;;0.00;0.00;;;;;;;;;;5070723;28;20202;-72
2022/01/20 08:06:07;;;;;;;0.00;0.00;;;;;;;;;;5073642;28;20263;-73
2022/01/20 08:08:35;;;;;;;0.00;0.00;;;;;;;;;;5072900;28;20226;-71
2022/01/20 08:11:05;;;;;;;0.00;0.00;;;;;;;;;;5073642;28;20202;-72
2022/01/20 08:13:36;;;;;;;0.00;0.00;;;;;;;;;;5084199;28;20256;-71
2022/01/20 08:16:05;;;;;;;0.00;0.00;;;;;;;;;;5073148;28;20210;-71
2022/01/20 08:18:34;;;;;;;0.00;0.00;;;;;;;;;;5074969;28;20215;-71
2022/01/20 08:21:02;;;;;;;0.00;0.00;;;;;;;;;;5075592;28;20665;-72
2022/01/20 08:23:30;;;;;;;0.00;0.00;;;;;;;;;;5073172;28;20314;-71
2022/01/20 08:25:59;;;;;;;0.00;0.00;;;;;;;;;;5073207;28;20618;-71
2022/01/20 08:28:29;;;;;;;0.00;0.00;;;;;;;;;;5073396;28;20305;-72
2022/01/20 08:30:57;;;;;;;0.00;0.00;;;;;;;;;;5072585;28;20574;-71
2022/01/20 08:33:26;;;;;;;0.00;0.00;;;;;;;;;;5083680;28;20661;-71
2022/01/20 08:35:54;;;;;;;0.00;0.00;;;;;;;;;;5085284;28;20206;-73
2022/01/20 08:38:23;;;;;;;0.00;0.00;;;;;;;;;;5076732;28;20218;-72
2022/01/20 08:40:51;;;;;;;0.00;0.00;;;;;;;;;;5093216;28;20207;-72
2022/01/20 08:43:19;;;;;;;0.10;0.10;;;;;;;;;;5082650;28;20209;-71
2022/01/20 08:45:49;;;;;;;0.00;0.00;;;;;;;;;;5088678;28;20244;-72
2022/01/20 08:48:18;;;;;;;0.00;0.00;;;;;;;;;;5078003;28;20861;-72
2022/01/20 08:50:46;;;;;;;0.00;0.00;;;;;;;;;;5073199;28;20199;-73
2022/01/20 08:53:16;;;;;;;0.00;0.00;;;;;;;;;;5072844;28;20248;-72
2022/01/20 08:55:44;;;;;;;0.00;0.00;;;;;;;;;;5072923;28;20209;-71
2022/01/20 08:58:14;;;;;;;0.00;0.00;;;;;;;;;;5072731;28;20246;-71
2022/01/20 09:00:42;;;;;;;0.00;0.00;;;;;;;;;;5072078;28;20662;-72
2022/01/20 09:03:13;;;;;;;0.00;0.00;;;;;;;;;;5072135;28;20207;-72
2022/01/20 09:05:42;;;;;;;0.00;0.00;;;;;;;;;;5073454;28;20740;-72
2022/01/20 09:08:10;;;;;;;0.00;0.00;;;;;;;;;;5071928;28;20228;-71
2022/01/20 09:10:42;;;;;;;0.00;0.00;;;;;;;;;;5068888;28;20214;-71
2022/01/20 09:15:56;;;;;;;0.00;0.00;;;;;;;;;;5076844;28;20637;-73
2022/01/20 09:18:26;;;;;;;0.00;0.00;;;;;;;;;;5080449;28;20731;-71
2022/01/20 09:20:54;;;;;;;0.00;0.00;;;;;;;;;;5069204;28;20255;-71
2022/01/20 09:23:23;;;;;;;0.00;0.00;;;;;;;;;;5095520;28;20276;-73
2022/01/20 09:25:51;;;;;;;0.00;0.00;;;;;;;;;;5077361;28;20727;-73
2022/01/20 09:28:20;;;;;;;0.00;0.00;;;;;;;;;;5079936;28;20280;-72
2022/01/20 09:30:50;;;;;;;0.00;0.00;;;;;;;;;;5075466;28;20202;-71
2022/01/20 09:33:26;;;;;;;0.00;0.00;;;;;;;;;;5076696;28;20202;-72
2022/01/20 09:35:56;;;;;;;0.00;0.00;;;;;;;;;;5075610;28;20205;-70
2022/01/20 09:38:24;;;;;;;0.00;0.00;;;;;;;;;;5078750;28;20696;-72
2022/01/20 09:40:53;;;;;;;0.00;0.00;;;;;;;;;;5076197;28;20202;-71
2022/01/20 09:43:21;;;;;;;0.00;0.00;;;;;;;;;;5077533;28;20199;-71
2022/01/20 09:45:55;;;;;;;0.00;0.00;;;;;;;;;;5076232;28;20287;-72
2022/01/20 09:48:23;;;;;;;0.00;0.00;;;;;;;;;;5086799;28;20216;-71
2022/01/20 09:50:53;;;;;;;0.00;0.00;;;;;;;;;;5096253;28;20228;-70
2022/01/20 09:53:23;;;;;;;0.00;0.00;;;;;;;;;;5090840;28;20200;-72
2022/01/20 09:55:51;;;;;;;0.00;0.00;;;;;;;;;;5083954;28;20649;-70
2022/01/20 09:58:19;;;;;;;0.00;0.00;;;;;;;;;;5079074;28;20220;-72
2022/01/20 10:00:49;;;;;;;0.00;0.00;;;;;;;;;;5083410;28;20207;-72
2022/01/20 10:03:19;;;;;;;0.00;0.00;;;;;;;;;;5081663;28;20198;-70
2022/01/20 10:05:49;;;;;;;0.00;0.00;;;;;;;;;;5077971;28;20197;-72
2022/01/20 10:08:21;;;;;;;0.00;0.00;;;;;;;;;;5094618;28;20757;-73
2022/01/20 10:10:52;;;;;;;0.00;0.00;;;;;;;;;;5075722;28;20206;-69
2022/01/20 10:13:22;;;;;;;0.00;0.00;;;;;;;;;;5081867;28;20210;-71
2022/01/20 10:16:01;;;;;;;0.00;0.00;;;;;;;;;;5076583;28;20203;-72
2022/01/20 10:18:30;;;;;;;0.00;0.00;;;;;;;;;;5062947;28;20227;-72
2022/01/20 10:21:00;;;;;;;0.10;0.10;;;;;;;;;;5075822;28;20199;-72
2022/01/20 10:23:33;;;;;;;0.00;0.00;;;;;;;;;;5062644;28;20231;-70
2022/01/20 10:26:07;;;;;;;0.00;0.00;;;;;;;;;;5079365;28;20196;-73
2022/01/20 10:28:52;;;;;;;0.07;0.07;;;;;;;;;;5087044;28;20214;-70
2022/01/20 10:31:31;;;;;;;0.00;0.00;;;;;;;;;;5075849;28;20258;-72
2022/01/20 10:34:00;;;;;;;0.10;0.10;;;;;;;;;;5061635;28;20214;-72
2022/01/20 10:36:28;;;;;;;0.00;0.00;;;;;;;;;;5084991;28;20730;-72
2022/01/20 10:38:58;;;;;;;0.00;0.00;;;;;;;;;;5089971;28;20224;-73
2022/01/20 10:41:29;;;;;;;0.00;0.00;;;;;;;;;;5080010;28;20259;-70
2022/01/20 10:44:01;;;;;;;0.00;0.00;;;;;;;;;;5076290;28;20205;-71
2022/01/20 10:46:30;;;;;;;0.00;0.00;;;;;;;;;;5075025;28;20206;-71
2022/01/20 10:48:59;;;;;;;0.00;0.00;;;;;;;;;;5074228;28;20264;-72
2022/01/20 10:51:28;;;;;;;0.00;0.00;;;;;;;;;;5078055;28;20213;-72
2022/01/20 10:54:00;;;;;;;0.00;0.00;;;;;;;;;;5074952;28;20243;-72
2022/01/20 10:56:30;;;;;;;0.00;0.00;;;;;;;;;;5076389;28;20210;-71
2022/01/20 10:59:07;;;;;;;0.00;0.00;;;;;;;;;;5082993;28;20299;-70
2022/01/20 11:01:35;;;;;;;0.00;0.00;;;;;;;;;;5086860;28;20320;-71
2022/01/20 11:04:04;;;;;;;0.00;0.00;;;;;;;;;;5074779;28;20241;-71
2022/01/20 11:06:36;;;;;;;0.00;0.00;;;;;;;;;;5074752;28;20578;-69
2022/01/20 11:09:07;;;;;;;0.00;0.00;;;;;;;;;;5075239;28;20240;-70
2022/01/20 11:11:37;;;;;;;0.00;0.00;;;;;;;;;;5085431;28;20255;-71
2022/01/20 11:14:05;;;;;;;0.00;0.00;;;;;;;;;;5094979;28;20213;-70
2022/01/20 11:16:40;;;;;;;0.00;0.00;;;;;;;;;;5094352;28;20733;-71
2022/01/20 11:19:15;;;;;;;0.00;0.00;;;;;;;;;;5088980;28;20307;-69
2022/01/20 11:21:45;;;;;;;0.00;0.00;;;;;;;;;;5076071;28;20204;-71
2022/01/20 11:24:24;;;;;;;0.00;0.00;;;;;;;;;;5074652;28;20207;-70
2022/01/20 11:26:54;;;;;;;0.00;0.00;;;;;;;;;;5085922;28;20203;-71
2022/01/20 11:29:25;;;;;;;0.00;0.00;;;;;;;;;;5087490;28;20257;-71
2022/01/20 11:31:54;;;;;;;0.00;0.00;;;;;;;;;;5074723;28;20712;-72
2022/01/20 11:34:42;;;;;;;0.00;0.00;;;;;;;;;;5074936;28;20210;-71
2022/01/20 11:37:11;;;;;;;0.00;0.00;;;;;;;;;;5074411;28;20260;-70
2022/01/20 11:39:48;;;;;;;0.00;0.00;;;;;;;;;;5082785;28;20256;-72
2022/01/20 11:42:22;;;;;;;0.00;0.00;;;;;;;;;;5094614;28;20246;-70
2022/01/20 11:44:51;;;;;;;0.00;0.00;;;;;;;;;;5085105;28;20266;-71
2022/01/20 11:47:20;;;;;;;0.00;0.00;;;;;;;;;;5074360;28;20226;-71
2022/01/20 11:49:48;;;;;;;0.00;0.00;;;;;;;;;;5074090;28;20667;-71
2022/01/20 11:52:26;;;;;;;0.00;0.00;;;;;;;;;;5074192;28;20692;-70
2022/01/20 11:54:54;;;;;;;0.00;0.00;;;;;;;;;;5073929;28;20603;-72
2022/01/20 11:57:30;;;;;;;0.00;0.00;;;;;;;;;;5073984;28;20259;-70
2022/01/20 12:00:01;;;;;;;0.00;0.00;;;;;;;;;;5073793;28;20263;-70
2022/01/20 12:02:32;;;;;;;0.00;0.00;;;;;;;;;;5074161;28;20210;-70
2022/01/20 12:05:01;;;;;;;0.00;0.00;;;;;;;;;;5076438;28;20198;-72
2022/01/20 12:07:31;;;;;;;0.00;0.00;;;;;;;;;;5074048;28;20226;-71
2022/01/20 12:10:06;;;;;;;0.00;0.00;;;;;;;;;;5073548;28;20661;-72
2022/01/20 12:12:38;;;;;;;0.00;0.00;;;;;;;;;;5073833;28;20223;-69
2022/01/20 12:15:11;;;;;;;0.00;0.00;;;;;;;;;;5081300;28;20197;-70
2022/01/20 12:17:41;;;;;;;0.00;0.00;;;;;;;;;;5093844;28;20223;-70
2022/01/20 12:20:12;;;;;;;0.00;0.00;;;;;;;;;;5079238;28;20229;-71
2022/01/20 12:22:41;;;;;;;0.00;0.00;;;;;;;;;;5072414;28;20271;-73
2022/01/20 12:25:15;;;;;;;0.00;0.00;;;;;;;;;;5081210;28;20221;-70
2022/01/20 12:27:45;;;;;;;0.00;0.00;;;;;;;;;;5092131;28;20223;-70
2022/01/20 12:30:18;;;;;;;0.00;0.00;;;;;;;;;;5093473;28;20653;-71
2022/01/20 12:32:56;;;;;;;0.00;0.00;;;;;;;;;;5081776;28;20206;-71
2022/01/20 12:35:24;;;;;;;0.00;0.00;;;;;;;;;;5073502;28;20252;-71
2022/01/20 12:37:53;;;;;;;0.00;0.00;;;;;;;;;;5075178;28;20215;-72
2022/01/20 12:40:22;;;;;;;0.00;0.00;;;;;;;;;;5073121;28;20282;-71
2022/01/20 12:42:52;;;;;;;0.00;0.00;;;;;;;;;;5073344;28;20194;-71
2022/01/20 12:48:12;;;;;;;0.00;0.00;;;;;;;;;;5082780;28;20218;-70
2022/01/20 12:50:40;;;;;;;0.00;0.00;;;;;;;;;;5073056;28;20587;-71
2022/01/20 12:53:09;;;;;;;0.00;0.00;;;;;;;;;;5079742;28;20190;-70
2022/01/20 12:55:37;;;;;;;0.00;0.00;;;;;;;;;;5073311;28;20685;-71
2022/01/20 12:58:07;;;;;;;0.00;0.00;;;;;;;;;;5073227;28;20345;-71
2022/01/20 13:00:36;;;;;;;0.00;0.00;;;;;;;;;;5072001;28;20265;-71
2022/01/20 13:03:04;;;;;;;0.00;0.00;;;;;;;;;;5073098;28;20238;-71
2022/01/20 13:05:40;;;;;;;0.00;0.00;;;;;;;;;;5072986;28;20204;-72
2022/01/20 13:08:08;;;;;;;0.00;0.00;;;;;;;;;;5072611;28;20280;-71
2022/01/20 13:10:37;;;;;;;0.00;0.00;;;;;;;;;;5072856;28;20186;-72
2022/01/20 13:13:17;;;;;;;0.00;0.00;;;;;;;;;;5072205;28;20200;-70
2022/01/20 13:15:46;;;;;;;0.00;0.00;;;;;;;;;;5070796;28;20198;-71
2022/01/20 13:18:15;;;;;;;0.00;0.00;;;;;;;;;;5077017;28;20228;-71
2022/01/20 13:20:54;;;;;;;0.00;0.00;;;;;;;;;;5076583;28;20228;-71
2022/01/20 13:26:10;;;;;;;0.00;0.00;;;;;;;;;;5093195;28;20280;-71
2022/01/20 13:28:39;;;;;;;0.00;0.00;;;;;;;;;;5077133;28;20773;-70
2022/01/20 13:31:15;;;;;;;0.00;0.00;;;;;;;;;;5072083;28;20614;-72
2022/01/20 13:33:44;;;;;;;0.00;0.00;;;;;;;;;;5072822;28;20261;-71
2022/01/20 13:36:12;;;;;;;0.00;0.00;;;;;;;;;;5072220;28;20204;-72
2022/01/20 13:38:47;;;;;;;0.00;0.00;;;;;;;;;;5072701;28;20236;-70
2022/01/20 13:41:18;;;;;;;0.00;0.00;;;;;;;;;;5072584;28;20690;-70
2022/01/20 13:46:37;;;;;;;0.00;0.00;;;;;;;;;;5073075;28;20210;-71
2022/01/20 13:49:10;;;;;;;0.00;0.00;;;;;;;;;;5075431;28;20800;-71
2022/01/20 13:51:39;;;;;;;0.00;0.00;;;;;;;;;;4725236;28;9999911;-72
2022/01/20 13:54:07;;;;;;;0.00;0.00;;;;;;;;;;5069857;28;20219;-71
2022/01/20 13:56:36;;;;;;;0.00;0.00;;;;;;;;;;5068500;28;20924;-71
2022/01/20 13:59:07;;;;;;;0.00;0.00;;;;;;;;;;5079322;28;20662;-71
2022/01/20 14:01:55;;;;;;;0.00;0.00;;;;;;;;;;5078915;28;20255;-72
2022/01/20 14:04:24;;;;;;;0.00;0.00;;;;;;;;;;5059415;28;20237;-72
2022/01/20 14:06:52;;;;;;;0.00;0.00;;;;;;;;;;5071741;28;20225;-70
2022/01/20 14:09:21;;;;;;;0.00;0.00;;;;;;;;;;5074691;28;20729;-72
2022/01/20 14:11:51;;;;;;;0.00;0.00;;;;;;;;;;5067854;28;20200;-71
2022/01/20 14:14:25;;;;;;;0.00;0.00;;;;;;;;;;5071047;28;20234;-71
2022/01/20 14:17:05;;;;;;;0.00;0.00;;;;;;;;;;5070229;28;20289;-71
2022/01/20 14:19:43;;;;;;;0.00;0.00;;;;;;;;;;5047872;28;20643;-72
2022/01/20 14:22:12;;;;;;;0.00;0.00;;;;;;;;;;5070493;28;20532;-70
2022/01/20 14:24:40;;;;;;;0.00;0.00;;;;;;;;;;5067615;28;20202;-71
2022/01/20 14:27:16;;;;;;;0.00;0.00;;;;;;;;;;5067125;28;20322;-71
2022/01/20 14:29:49;;;;;;;0.00;0.00;;;;;;;;;;5072550;28;20242;-72
2022/01/20 14:32:22;;;;;;;0.00;0.00;;;;;;;;;;5077102;28;20206;-71
2022/01/20 14:34:53;;;;;;;0.00;0.00;;;;;;;;;;5072477;28;20203;-72
2022/01/20 14:37:22;;;;;;;0.00;0.00;;;;;;;;;;5069524;28;20221;-70
2022/01/20 14:39:51;;;;;;;0.00;0.00;;;;;;;;;;5068685;28;20705;-70
2022/01/20 14:42:19;;;;;;;0.00;0.00;;;;;;;;;;5061438;28;20648;-70
2022/01/20 14:44:49;;;;;;;0.00;0.00;;;;;;;;;;5067867;28;20215;-69
2022/01/20 14:47:20;;;;;;;0.00;0.00;;;;;;;;;;5068267;28;20227;-69
2022/01/20 14:49:48;;;;;;;0.00;0.00;;;;;;;;;;5071394;28;20218;-69
2022/01/20 14:52:16;;;;;;;0.00;0.00;;;;;;;;;;5070618;28;20216;-68
2022/01/20 14:54:45;;;;;;;0.00;0.00;;;;;;;;;;5071242;28;20196;-69
2022/01/20 14:57:14;;;;;;;0.00;0.00;;;;;;;;;;5066895;28;20801;-70
2022/01/20 14:59:43;;;;;;;0.00;0.00;;;;;;;;;;5074236;28;20566;-68
2022/01/20 15:02:13;;;;;;;0.00;0.00;;;;;;;;;;5071598;28;20543;-70
2022/01/20 15:07:24;;;;;;;0.00;0.00;;;;;;;;;;5068877;28;20234;-70
2022/01/20 15:09:55;;;;;;;0.00;0.00;;;;;;;;;;5072016;27;20194;-70
2022/01/20 15:12:24;;;;;;;0.00;0.00;;;;;;;;;;5069575;28;20208;-69
2022/01/20 15:14:52;;;;;;;0.00;0.00;;;;;;;;;;5072937;28;20201;-68
2022/01/20 15:17:23;;;;;;;0.00;0.00;;;;;;;;;;5073236;28;20222;-68
2022/01/20 15:19:51;;;;;;;0.00;0.00;;;;;;;;;;5081024;28;20199;-68
2022/01/20 15:22:20;;;;;;;0.00;0.00;;;;;;;;;;5077250;28;20678;-68
2022/01/20 15:24:48;;;;;;;0.00;0.00;;;;;;;;;;5073802;28;20698;-68
2022/01/20 15:27:17;;;;;;;0.00;0.00;;;;;;;;;;5072172;28;20256;-68
2022/01/20 15:29:45;;;;;;;0.00;0.00;;;;;;;;;;5072796;28;20689;-68
2022/01/20 15:32:35;;;;;;;0.00;0.00;;;;;;;;;;5073263;28;20206;-68
2022/01/20 15:35:04;;;;;;;0.00;0.00;;;;;;;;;;5071067;28;20205;-67
2022/01/20 15:37:33;;;;;;;0.00;0.00;;;;;;;;;;5070849;28;20306;-69
2022/01/20 15:40:01;;;;;;;0.00;0.00;;;;;;;;;;5071954;28;20207;-68
2022/01/20 15:42:30;;;;;;;0.00;0.00;;;;;;;;;;5064269;28;20218;-69
2022/01/20 15:44:58;;;;;;;0.00;0.00;;;;;;;;;;5067366;28;20576;-69
2022/01/20 15:47:26;;;;;;;0.00;0.00;;;;;;;;;;5070020;28;20214;-69
2022/01/20 15:49:56;;;;;;;0.00;0.00;;;;;;;;;;5072767;28;20251;-68
2022/01/20 15:52:28;;;;;;;0.00;0.00;;;;;;;;;;5073826;28;20210;-68
2022/01/20 15:54:56;;;;;;;0.00;0.00;;;;;;;;;;5071498;28;20206;-68
2022/01/20 15:57:26;;;;;;;0.00;0.00;;;;;;;;;;5069430;28;20222;-68
2022/01/20 15:59:55;;;;;;;0.00;0.00;;;;;;;;;;5072810;28;20210;-69
2022/01/20 16:05:12;;;;;;;0.00;0.00;;;;;;;;;;5073605;28;20201;-68